createdAt,value
2018-11-01T00:00:18.012Z,8.80
2018-11-01T00:02:47.617Z,8.80
2018-11-01T00:05:17.291Z,8.80
2018-11-01T00:07:46.632Z,8.80
2018-11-01T00:10:15.948Z,8.80
2018-11-01T00:12:45.474Z,8.80
2018-11-01T00:15:15.737Z,8.80
2018-11-01T00:17:45.025Z,8.80
2018-11-01T00:20:14.751Z,8.80
2018-11-01T00:22:44.652Z,8.80
2018-11-01T00:25:14.462Z,8.80
2018-11-01T00:27:44.068Z,8.80
2018-11-01T00:30:13.368Z,8.80
2018-11-01T00:32:42.673Z,8.80
2018-11-01T00:35:11.939Z,8.80
2018-11-01T00:37:41.197Z,8.80
2018-11-01T00:40:12.756Z,8.80
2018-11-01T00:42:42.742Z,8.80
2018-11-01T00:45:12.475Z,8.80
2018-11-01T00:47:41.716Z,8.90
2018-11-01T00:50:12.688Z,8.90
2018-11-01T00:52:42.495Z,8.80
2018-11-01T00:55:12.834Z,8.80
2018-11-01T00:57:42.637Z,8.80
2018-11-01T01:00:13.984Z,8.80
2018-11-01T01:02:43.224Z,8.70
2018-11-01T01:05:12.995Z,8.80
2018-11-01T01:07:42.295Z,8.70
2018-11-01T01:10:15.087Z,8.70
2018-11-01T01:12:45.816Z,8.70
2018-11-01T01:15:15.324Z,8.70
2018-11-01T01:17:44.546Z,8.70
2018-11-01T01:20:16.098Z,8.70
2018-11-01T01:22:46.093Z,8.80
2018-11-01T01:25:17.647Z,8.80
2018-11-01T01:27:46.897Z,8.80
2018-11-01T01:30:18.395Z,8.80
2018-11-01T01:32:48.021Z,8.80
2018-11-01T01:35:17.717Z,8.80
2018-11-01T01:37:47.015Z,8.70
2018-11-01T01:40:16.249Z,8.60
2018-11-01T01:42:52.700Z,8.60
2018-11-01T01:45:22.489Z,8.60
2018-11-01T01:47:51.744Z,8.60
2018-11-01T01:50:21.475Z,8.60
2018-11-01T01:52:51.004Z,8.60
2018-11-01T01:55:20.275Z,8.60
2018-11-01T01:57:49.534Z,8.60
2018-11-01T02:00:20.137Z,8.70
2018-11-01T02:02:51.581Z,8.70
2018-11-01T02:05:20.813Z,8.70
2018-11-01T02:07:50.088Z,8.60
2018-11-01T02:10:19.589Z,8.70
2018-11-01T02:12:48.920Z,8.70
2018-11-01T02:15:19.538Z,8.70
2018-11-01T02:17:48.838Z,8.70
2018-11-01T02:20:19.360Z,8.60
2018-11-01T02:22:48.654Z,8.50
2018-11-01T02:25:17.924Z,8.60
2018-11-01T02:27:52.425Z,8.60
2018-11-01T02:30:21.726Z,8.60
2018-11-01T02:32:51.078Z,8.60
2018-11-01T02:35:20.584Z,8.60
2018-11-01T02:37:49.881Z,8.60
2018-11-01T02:40:19.158Z,8.50
2018-11-01T02:42:48.500Z,8.50
2018-11-01T02:45:17.775Z,8.50
2018-11-01T02:47:47.059Z,8.40
2018-11-01T02:50:16.381Z,8.40
2018-11-01T02:52:45.650Z,8.40
2018-11-01T02:55:14.907Z,8.50
2018-11-01T02:57:44.147Z,8.50
2018-11-01T03:00:15.229Z,8.60
2018-11-01T03:02:44.593Z,8.50
2018-11-01T03:05:14.337Z,8.50
2018-11-01T03:07:43.636Z,8.60
2018-11-01T03:10:14.179Z,8.60
2018-11-01T03:12:43.594Z,8.50
2018-11-01T03:15:13.991Z,8.50
2018-11-01T03:17:43.297Z,8.60
2018-11-01T03:20:13.039Z,8.60
2018-11-01T03:22:42.636Z,8.60
2018-11-01T03:25:12.113Z,8.50
2018-11-01T03:27:41.337Z,8.60
2018-11-01T03:30:10.802Z,8.60
2018-11-01T03:32:40.123Z,8.60
2018-11-01T03:35:10.655Z,8.60
2018-11-01T03:37:40.160Z,8.60
2018-11-01T03:40:10.600Z,8.60
2018-11-01T03:42:40.601Z,8.60
2018-11-01T03:45:11.535Z,8.60
2018-11-01T03:47:40.940Z,8.60
2018-11-01T03:50:10.564Z,8.60
2018-11-01T03:52:41.080Z,8.60
2018-11-01T03:55:11.608Z,8.60
2018-11-01T03:57:41.726Z,8.60
2018-11-01T04:00:13.594Z,8.60
2018-11-01T04:02:43.094Z,8.60
2018-11-01T04:05:12.385Z,8.60
2018-11-01T04:07:41.665Z,8.50
2018-11-01T04:10:11.789Z,8.40
2018-11-01T04:12:41.163Z,8.30
2018-11-01T04:15:12.762Z,8.20
2018-11-01T04:17:41.904Z,8.20
2018-11-01T04:20:12.343Z,8.20
2018-11-01T04:22:42.611Z,8.20
2018-11-01T04:25:11.854Z,8.30
2018-11-01T04:27:41.136Z,8.40
2018-11-01T04:30:10.446Z,8.40
2018-11-01T04:32:39.820Z,8.40
2018-11-01T04:35:09.421Z,8.30
2018-11-01T04:37:38.839Z,8.30
2018-11-01T04:40:08.645Z,8.30
2018-11-01T04:42:37.936Z,8.40
2018-11-01T04:45:08.654Z,8.40
2018-11-01T04:47:38.186Z,8.50
2018-11-01T04:50:09.111Z,8.50
2018-11-01T04:52:38.348Z,8.50
2018-11-01T04:55:08.361Z,8.40
2018-11-01T04:57:37.841Z,8.60
2018-11-01T05:00:09.573Z,8.50
2018-11-01T05:02:39.037Z,8.50
2018-11-01T05:05:08.476Z,8.40
2018-11-01T05:07:38.010Z,8.60
2018-11-01T05:10:09.191Z,8.70
2018-11-01T05:12:39.045Z,8.70
2018-11-01T05:15:08.786Z,8.60
2018-11-01T05:17:38.412Z,8.50
2018-11-01T05:20:09.595Z,8.60
2018-11-01T05:22:39.031Z,8.80
2018-11-01T05:25:09.105Z,8.70
2018-11-01T05:27:38.330Z,8.70
2018-11-01T05:30:09.496Z,8.80
2018-11-01T05:32:38.825Z,8.90
2018-11-01T05:35:08.508Z,8.80
2018-11-01T05:37:37.938Z,8.70
2018-11-01T05:40:09.173Z,8.50
2018-11-01T05:42:38.560Z,8.50
2018-11-01T05:45:07.957Z,8.50
2018-11-01T05:47:37.191Z,8.50
2018-11-01T05:50:07.347Z,8.50
2018-11-01T05:52:36.907Z,8.40
2018-11-01T05:55:06.732Z,8.50
2018-11-01T05:57:36.124Z,8.40
2018-11-01T06:00:08.157Z,8.40
2018-11-01T06:02:39.648Z,8.40
2018-11-01T06:05:09.640Z,8.40
2018-11-01T06:07:43.055Z,8.30
2018-11-01T06:10:12.432Z,8.30
2018-11-01T06:12:41.788Z,8.20
2018-11-01T06:15:11.543Z,8.20
2018-11-01T06:17:41.210Z,8.20
2018-11-01T06:20:11.377Z,8.00
2018-11-01T06:22:40.804Z,8.00
2018-11-01T06:25:10.723Z,8.10
2018-11-01T06:27:40.050Z,8.10
2018-11-01T06:30:12.732Z,8.20
2018-11-01T06:32:42.300Z,8.20
2018-11-01T06:35:19.232Z,8.10
2018-11-01T06:37:48.487Z,8.20
2018-11-01T06:40:18.205Z,8.20
2018-11-01T06:42:48.288Z,8.20
2018-11-01T06:45:18.101Z,8.30
2018-11-01T06:47:47.670Z,8.30
2018-11-01T06:50:16.942Z,8.30
2018-11-01T06:52:46.333Z,8.30
2018-11-01T06:55:15.632Z,8.40
2018-11-01T06:57:44.981Z,8.40
2018-11-01T07:00:15.340Z,8.50
2018-11-01T07:02:44.676Z,8.50
2018-11-01T07:05:13.936Z,8.40
2018-11-01T07:07:43.235Z,8.50
2018-11-01T07:10:14.592Z,8.40
2018-11-01T07:12:43.997Z,8.40
2018-11-01T07:15:14.578Z,8.30
2018-11-01T07:17:43.945Z,8.30
2018-11-01T07:20:14.269Z,8.20
2018-11-01T07:22:44.166Z,8.20
2018-11-01T07:25:14.831Z,8.20
2018-11-01T07:27:44.768Z,8.20
2018-11-01T07:30:16.503Z,8.30
2018-11-01T07:32:45.959Z,8.50
2018-11-01T07:35:15.704Z,8.60
2018-11-01T07:37:46.219Z,8.60
2018-11-01T07:40:16.873Z,8.60
2018-11-01T07:42:46.324Z,8.60
2018-11-01T07:45:16.112Z,8.60
2018-11-01T07:47:45.895Z,8.70
2018-11-01T07:50:15.401Z,8.80
2018-11-01T07:52:44.764Z,8.90
2018-11-01T07:55:15.204Z,9.00
2018-11-01T07:57:44.554Z,9.10
2018-11-01T08:00:16.571Z,9.10
2018-11-01T08:02:46.912Z,9.20
2018-11-01T08:05:16.810Z,9.20
2018-11-01T08:07:46.061Z,9.20
2018-11-01T08:10:16.760Z,9.20
2018-11-01T08:12:46.649Z,9.20
2018-11-01T08:15:17.509Z,9.10
2018-11-01T08:17:46.761Z,9.20
2018-11-01T08:20:16.809Z,9.30
2018-11-01T08:22:46.226Z,9.40
2018-11-01T08:25:15.847Z,9.50
2018-11-01T08:27:45.172Z,9.60
2018-11-01T08:30:15.785Z,9.60
2018-11-01T08:32:45.227Z,9.70
2018-11-01T08:35:14.661Z,9.70
2018-11-01T08:37:44.681Z,9.80
2018-11-01T08:40:14.419Z,9.80
2018-11-01T08:42:43.990Z,9.80
2018-11-01T08:45:14.541Z,9.90
2018-11-01T08:47:43.827Z,10.10
2018-11-01T08:50:14.387Z,10.10
2018-11-01T08:52:44.312Z,10.30
2018-11-01T08:55:14.204Z,10.50
2018-11-01T08:57:44.536Z,10.80
2018-11-01T09:00:14.428Z,10.90
2018-11-01T09:02:44.279Z,10.90
2018-11-01T09:05:14.252Z,11.10
2018-11-01T09:07:43.841Z,11.40
2018-11-01T09:10:14.700Z,11.50
2018-11-01T09:12:44.219Z,11.80
2018-11-01T09:15:15.730Z,11.90
2018-11-01T09:17:45.006Z,12.00
2018-11-01T09:20:14.289Z,12.10
2018-11-01T09:22:44.065Z,12.00
2018-11-01T09:25:13.358Z,12.20
2018-11-01T09:27:42.673Z,11.70
2018-11-01T09:30:13.937Z,11.70
2018-11-01T09:32:43.362Z,11.80
2018-11-01T09:35:13.337Z,11.90
2018-11-01T09:37:43.288Z,11.90
2018-11-01T09:40:14.919Z,12.00
2018-11-01T09:42:44.858Z,11.80
2018-11-01T09:45:14.277Z,11.50
2018-11-01T09:47:43.948Z,11.80
2018-11-01T09:50:13.056Z,11.90
2018-11-01T09:52:42.448Z,11.90
2018-11-01T09:55:11.763Z,11.90
2018-11-01T09:57:41.036Z,11.80
2018-11-01T10:00:12.313Z,11.60
2018-11-01T10:02:41.888Z,11.50
2018-11-01T10:05:11.700Z,11.60
2018-11-01T10:07:40.998Z,11.80
2018-11-01T10:10:11.853Z,11.90
2018-11-01T10:12:41.483Z,11.80
2018-11-01T10:15:11.525Z,11.90
2018-11-01T10:17:41.129Z,12.00
2018-11-01T10:20:12.120Z,12.20
2018-11-01T10:22:41.541Z,12.20
2018-11-01T10:25:12.604Z,12.30
2018-11-01T10:27:42.023Z,12.40
2018-11-01T10:30:16.763Z,12.30
2018-11-01T10:32:46.246Z,12.20
2018-11-01T10:35:16.477Z,12.30
2018-11-01T10:37:46.319Z,12.30
2018-11-01T10:40:17.694Z,12.40
2018-11-01T10:42:47.016Z,12.30
2018-11-01T10:45:16.272Z,12.30
2018-11-01T10:47:45.650Z,12.10
2018-11-01T10:50:16.721Z,12.10
2018-11-01T10:52:46.094Z,12.20
2018-11-01T10:55:15.373Z,12.20
2018-11-01T10:57:44.666Z,12.20
2018-11-01T11:00:19.251Z,12.30
2018-11-01T11:02:49.775Z,12.20
2018-11-01T11:05:20.304Z,12.20
2018-11-01T11:07:49.942Z,12.30
2018-11-01T11:10:19.540Z,12.30
2018-11-01T11:12:48.956Z,12.30
2018-11-01T11:15:18.348Z,12.40
2018-11-01T11:17:47.624Z,12.40
2018-11-01T11:20:16.963Z,12.40
2018-11-01T11:22:46.391Z,12.30
2018-11-01T11:25:15.697Z,12.20
2018-11-01T11:27:44.956Z,12.20
2018-11-01T11:30:14.475Z,12.10
2018-11-01T11:32:43.668Z,12.10
2018-11-01T11:35:13.034Z,12.00
2018-11-01T11:37:42.335Z,11.90
2018-11-01T11:40:12.374Z,11.80
2018-11-01T11:42:41.920Z,11.70
2018-11-01T11:45:12.766Z,11.60
2018-11-01T11:47:42.638Z,11.40
2018-11-01T11:50:12.933Z,11.20
2018-11-01T11:52:43.501Z,11.10
2018-11-01T11:55:12.796Z,11.00
2018-11-01T11:57:42.135Z,10.90
2018-11-01T12:00:14.019Z,10.70
2018-11-01T12:02:43.628Z,10.60
2018-11-01T12:05:12.996Z,10.50
2018-11-01T12:07:42.303Z,10.50
2018-11-01T12:10:12.793Z,10.50
2018-11-01T12:12:42.357Z,10.50
2018-11-01T12:15:11.702Z,10.60
2018-11-01T12:17:41.310Z,10.70
2018-11-01T12:20:12.392Z,10.70
2018-11-01T12:22:41.789Z,10.70
2018-11-01T12:25:11.668Z,10.60
2018-11-01T12:27:41.004Z,10.50
2018-11-01T12:30:11.666Z,10.40
2018-11-01T12:32:40.989Z,10.30
2018-11-01T12:35:10.914Z,10.20
2018-11-01T12:37:40.319Z,10.10
2018-11-01T12:40:11.428Z,10.10
2018-11-01T12:42:40.952Z,10.00
2018-11-01T12:45:11.812Z,10.10
2018-11-01T12:47:41.515Z,10.10
2018-11-01T12:50:12.896Z,10.10
2018-11-01T12:52:42.052Z,10.00
2018-11-01T12:55:11.631Z,10.00
2018-11-01T12:57:40.925Z,10.00
2018-11-01T13:00:11.988Z,10.20
2018-11-01T13:02:41.348Z,10.40
2018-11-01T13:05:10.744Z,10.50
2018-11-01T13:07:40.103Z,10.60
2018-11-01T13:10:09.403Z,10.80
2018-11-01T13:12:38.682Z,10.70
2018-11-01T13:15:09.347Z,10.70
2018-11-01T13:17:38.609Z,10.70
2018-11-01T13:20:08.425Z,10.70
2018-11-01T13:22:38.622Z,10.70
2018-11-01T13:25:09.727Z,10.60
2018-11-01T13:27:39.004Z,10.60
2018-11-01T13:30:10.847Z,10.70
2018-11-01T13:32:40.146Z,10.70
2018-11-01T13:35:09.491Z,10.70
2018-11-01T13:37:38.772Z,10.70
2018-11-01T13:40:08.961Z,10.90
2018-11-01T13:42:38.378Z,11.00
2018-11-01T13:45:08.625Z,11.10
2018-11-01T13:47:37.996Z,11.10
2018-11-01T13:50:08.528Z,11.30
2018-11-01T13:52:37.851Z,11.40
2018-11-01T13:55:08.924Z,11.50
2018-11-01T13:57:38.206Z,11.50
2018-11-01T14:00:07.848Z,11.50
2018-11-01T14:02:38.502Z,11.50
2018-11-01T14:05:10.196Z,11.50
2018-11-01T14:07:39.892Z,11.40
2018-11-01T14:10:11.430Z,11.00
2018-11-01T14:12:40.771Z,11.10
2018-11-01T14:15:11.255Z,11.10
2018-11-01T14:17:40.767Z,11.20
2018-11-01T14:20:11.395Z,11.10
2018-11-01T14:22:40.927Z,10.80
2018-11-01T14:25:11.288Z,10.70
2018-11-01T14:27:40.614Z,10.70
2018-11-01T14:30:12.456Z,10.90
2018-11-01T14:32:42.009Z,11.00
2018-11-01T14:35:11.704Z,11.10
2018-11-01T14:37:41.011Z,11.10
2018-11-01T14:40:12.048Z,11.30
2018-11-01T14:42:41.680Z,11.40
2018-11-01T14:45:11.405Z,11.60
2018-11-01T14:47:40.843Z,11.60
2018-11-01T14:50:10.905Z,11.40
2018-11-01T14:52:40.639Z,11.50
2018-11-01T14:55:11.084Z,11.40
2018-11-01T14:57:40.654Z,11.30
2018-11-01T15:00:09.650Z,11.10
2018-11-01T15:02:39.052Z,11.00
2018-11-01T15:05:08.975Z,10.90
2018-11-01T15:07:38.242Z,11.00
2018-11-01T15:10:09.856Z,10.90
2018-11-01T15:12:39.519Z,11.00
2018-11-01T15:15:09.422Z,11.00
2018-11-01T15:17:39.130Z,10.90
2018-11-01T15:20:09.041Z,10.90
2018-11-01T15:22:38.288Z,11.00
2018-11-01T15:25:08.968Z,10.90
2018-11-01T15:27:38.389Z,10.90
2018-11-01T15:30:11.084Z,10.90
2018-11-01T15:32:40.345Z,10.80
2018-11-01T15:35:09.655Z,10.80
2018-11-01T15:37:39.038Z,10.70
2018-11-01T15:40:10.098Z,10.70
2018-11-01T15:42:39.492Z,10.70
2018-11-01T15:45:10.021Z,10.70
2018-11-01T15:47:40.103Z,10.70
2018-11-01T15:50:10.466Z,10.60
2018-11-01T15:52:39.796Z,10.60
2018-11-01T15:55:09.507Z,10.60
2018-11-01T15:57:39.007Z,10.60
2018-11-01T16:00:11.418Z,10.50
2018-11-01T16:02:42.214Z,10.60
2018-11-01T16:05:12.716Z,10.50
2018-11-01T16:07:42.115Z,10.50
2018-11-01T16:10:12.398Z,10.40
2018-11-01T16:12:41.794Z,10.50
2018-11-01T16:15:13.313Z,10.40
2018-11-01T16:17:42.645Z,10.40
2018-11-01T16:20:12.186Z,10.30
2018-11-01T16:22:42.025Z,10.40
2018-11-01T16:25:11.422Z,10.30
2018-11-01T16:27:40.737Z,10.30
2018-11-01T16:30:10.114Z,10.30
2018-11-01T16:32:39.627Z,10.20
2018-11-01T16:35:09.529Z,10.10
2018-11-01T16:37:39.056Z,10.10
2018-11-01T16:40:10.247Z,10.00
2018-11-01T16:42:39.837Z,9.90
2018-11-01T16:45:10.838Z,9.90
2018-11-01T16:47:40.086Z,9.90
2018-11-01T16:50:09.678Z,9.80
2018-11-01T16:52:39.846Z,9.80
2018-11-01T16:55:09.400Z,9.80
2018-11-01T16:57:45.268Z,9.80
2018-11-01T17:00:14.814Z,9.80
2018-11-01T17:02:44.367Z,9.70
2018-11-01T17:05:14.025Z,9.80
2018-11-01T17:07:43.328Z,9.80
2018-11-01T17:10:13.953Z,9.80
2018-11-01T17:12:43.301Z,9.70
2018-11-01T17:15:13.986Z,9.70
2018-11-01T17:17:43.951Z,9.60
2018-11-01T17:20:13.254Z,9.60
2018-11-01T17:22:43.889Z,9.60
2018-11-01T17:25:13.502Z,9.60
2018-11-01T17:27:42.640Z,9.60
2018-11-01T17:30:11.995Z,9.50
2018-11-01T17:32:46.505Z,9.50
2018-11-01T17:35:16.097Z,9.40
2018-11-01T17:37:45.476Z,9.30
2018-11-01T17:40:14.920Z,9.20
2018-11-01T17:42:45.646Z,9.20
2018-11-01T17:45:15.106Z,9.20
2018-11-01T17:47:45.420Z,9.20
2018-11-01T17:50:16.008Z,9.20
2018-11-01T17:52:45.328Z,9.20
2018-11-01T17:55:14.648Z,9.10
2018-11-01T17:57:44.034Z,9.10
2018-11-01T18:00:14.852Z,9.10
2018-11-01T18:02:44.538Z,9.20
2018-11-01T18:05:13.972Z,9.20
2018-11-01T18:07:43.223Z,9.20
2018-11-01T18:10:13.385Z,9.30
2018-11-01T18:12:42.704Z,9.30
2018-11-01T18:15:12.002Z,9.30
2018-11-01T18:17:41.476Z,9.40
2018-11-01T18:20:12.212Z,9.30
2018-11-01T18:22:41.590Z,9.30
2018-11-01T18:25:12.656Z,9.40
2018-11-01T18:27:42.289Z,9.50
2018-11-01T18:30:13.749Z,9.50
2018-11-01T18:32:43.698Z,9.40
2018-11-01T18:35:13.242Z,9.40
2018-11-01T18:37:43.145Z,9.40
2018-11-01T18:40:17.107Z,9.50
2018-11-01T18:42:46.718Z,9.40
2018-11-01T18:45:16.404Z,9.30
2018-11-01T18:47:46.001Z,9.30
2018-11-01T18:50:16.573Z,9.30
2018-11-01T18:52:46.228Z,9.20
2018-11-01T18:55:15.960Z,9.20
2018-11-01T18:57:45.256Z,9.20
2018-11-01T19:00:15.814Z,9.20
2018-11-01T19:02:45.205Z,9.20
2018-11-01T19:05:14.525Z,9.20
2018-11-01T19:07:44.557Z,9.30
2018-11-01T19:10:14.325Z,9.20
2018-11-01T19:12:43.693Z,9.30
2018-11-01T19:15:14.058Z,9.40
2018-11-01T19:17:43.363Z,9.40
2018-11-01T19:20:13.280Z,9.40
2018-11-01T19:22:42.582Z,9.30
2018-11-01T19:25:12.471Z,9.30
2018-11-01T19:27:41.845Z,9.20
2018-11-01T19:30:12.205Z,9.30
2018-11-01T19:32:42.034Z,9.30
2018-11-01T19:35:12.441Z,9.30
2018-11-01T19:37:41.757Z,9.30
2018-11-01T19:40:13.584Z,9.20
2018-11-01T19:42:43.256Z,9.20
2018-11-01T19:45:12.609Z,9.10
2018-11-01T19:47:42.139Z,9.10
2018-11-01T19:50:13.266Z,9.10
2018-11-01T19:52:42.843Z,9.10
2018-11-01T19:55:12.591Z,9.10
2018-11-01T19:57:42.481Z,9.10
2018-11-01T20:00:14.026Z,9.10
2018-11-01T20:02:43.787Z,9.10
2018-11-01T20:05:13.070Z,9.00
2018-11-01T20:07:42.368Z,9.00
2018-11-01T20:10:13.377Z,9.10
2018-11-01T20:12:43.364Z,9.10
2018-11-01T20:15:12.837Z,9.10
2018-11-01T20:17:42.217Z,9.20
2018-11-01T20:20:12.655Z,9.20
2018-11-01T20:22:42.976Z,9.30
2018-11-01T20:25:12.352Z,9.30
2018-11-01T20:27:41.780Z,9.30
2018-11-01T20:30:13.210Z,9.20
2018-11-01T20:32:43.237Z,9.10
2018-11-01T20:35:13.855Z,9.00
2018-11-01T20:37:43.647Z,9.00
2018-11-01T20:40:12.899Z,9.00
2018-11-01T20:42:42.888Z,9.00
2018-11-01T20:45:13.347Z,9.10
2018-11-01T20:47:42.686Z,9.20
2018-11-01T20:50:13.001Z,9.20
2018-11-01T20:52:42.496Z,9.10
2018-11-01T20:55:11.747Z,9.00
2018-11-01T20:57:41.195Z,8.90
2018-11-01T21:00:12.502Z,8.80
2018-11-01T21:02:41.893Z,8.80
2018-11-01T21:05:11.235Z,8.90
2018-11-01T21:07:40.822Z,8.80
2018-11-01T21:10:11.044Z,8.80
2018-11-01T21:12:40.770Z,8.80
2018-11-01T21:15:12.012Z,8.60
2018-11-01T21:17:41.388Z,8.50
2018-11-01T21:20:10.785Z,8.60
2018-11-01T21:22:40.395Z,8.80
2018-11-01T21:25:10.917Z,8.90
2018-11-01T21:27:40.325Z,8.90
2018-11-01T21:30:09.932Z,8.80
2018-11-01T21:32:39.160Z,8.80
2018-11-01T21:35:08.667Z,8.80
2018-11-01T21:37:37.869Z,8.70
2018-11-01T21:40:08.877Z,8.70
2018-11-01T21:42:38.177Z,8.70
2018-11-01T21:45:09.725Z,8.60
2018-11-01T21:47:38.958Z,8.50
2018-11-01T21:50:08.664Z,8.50
2018-11-01T21:52:38.040Z,8.50
2018-11-01T21:55:07.744Z,8.50
2018-11-01T21:57:36.966Z,8.50
2018-11-01T22:00:09.040Z,8.50
2018-11-01T22:02:38.920Z,8.50
2018-11-01T22:05:09.045Z,8.50
2018-11-01T22:07:38.551Z,8.30
2018-11-01T22:10:08.668Z,8.30
2018-11-01T22:12:37.998Z,8.30
2018-11-01T22:15:09.037Z,8.40
2018-11-01T22:17:38.513Z,8.40
2018-11-01T22:20:08.625Z,8.40
2018-11-01T22:22:38.093Z,8.20
2018-11-01T22:25:08.052Z,8.20
2018-11-01T22:27:37.428Z,8.20
2018-11-01T22:30:08.263Z,8.20
2018-11-01T22:32:37.597Z,8.20
2018-11-01T22:35:07.304Z,8.30
2018-11-01T22:37:36.625Z,8.40
2018-11-01T22:40:06.134Z,8.50
2018-11-01T22:42:35.510Z,8.40
2018-11-01T22:45:05.183Z,8.30
2018-11-01T22:47:34.448Z,8.20
2018-11-01T22:50:03.752Z,8.10
2018-11-01T22:52:33.120Z,8.20
2018-11-01T22:55:02.804Z,8.20
2018-11-01T22:57:32.097Z,8.30
2018-11-01T23:00:01.522Z,8.30
2018-11-01T23:02:30.756Z,8.30
2018-11-01T23:05:00.061Z,8.40
2018-11-01T23:07:29.297Z,8.50
2018-11-01T23:09:58.528Z,8.60
2018-11-01T23:12:27.829Z,8.60
2018-11-01T23:14:57.095Z,8.60
2018-11-01T23:17:26.357Z,8.70
2018-11-01T23:19:55.595Z,8.80
2018-11-01T23:22:24.926Z,8.90
2018-11-01T23:24:54.157Z,8.90
2018-11-01T23:27:23.605Z,8.80
2018-11-01T23:29:52.856Z,8.80
2018-11-01T23:32:22.332Z,8.80
2018-11-01T23:34:51.629Z,8.90
2018-11-01T23:37:25.817Z,9.00
2018-11-01T23:40:00.178Z,8.90
2018-11-01T23:42:34.656Z,8.80
2018-11-01T23:45:09.135Z,8.80
2018-11-01T23:47:43.561Z,8.60
2018-11-01T23:50:18.840Z,8.60
2018-11-01T23:52:51.449Z,8.60
2018-11-01T23:55:20.720Z,8.70
2018-11-01T23:57:50.221Z,8.70
